AirNav  
 
 493 users online  

KEDU University Airport
Davis, California, USA

GOING TO DAVIS?


FAA INFORMATION EFFECTIVE 09 NOVEMBER 2017

Location

FAA Identifier: EDU
Lat/Long: 38-31-53.2585N / 121-47-11.3225W
38-31.887642N / 121-47.188708W
38.5314607 / -121.7864785
(estimated)
Elevation: 69 ft. / 21.0 m (surveyed)
Variation: 14E (2010)
From city: 2 miles W of DAVIS, CA
Time zone: UTC -8 (UTC -7 during Daylight Saving Time)
Zip code: 95616

Airport Operations

Airport use: Open to the public
Activation date: 06/1946
Control tower: no
ARTCC: OAKLAND CENTER
FSS: RANCHO MURIETA FLIGHT SERVICE STATION
NOTAMs facility: RIU (NOTAM-D service available)
Attendance: MON-FRI 0800-1200
Pattern altitude: 869 ft. MSL
Wind indicator: lighted
Segmented circle: yes
Lights: ACTVT VASI RY 35; MIRL RY 17/35 - CTAF.
Beacon: white-green (lighted land airport)
Operates sunset to sunrise.

Airport Communications

CTAF/UNICOM: 123.075
WX AWOS-3: 119.025 (530-754-6839)
TRAVIS APPROACH: 126.6
TRAVIS DEPARTURE: 126.6
WX AWOS-3 at DWA (4 nm NW): 125.775 (530-750-2759)
WX ASOS at VCB (12 nm SW): 134.75 (707-448-1594)
WX ASOS at SMF (13 nm NE): PHONE 916-649-3996
WX ASOS at SAC (14 nm E): PHONE 916-421-0923
WX AWOS-3 at MCC (20 nm NE): 125.975 (916-641-1272)

Nearby radio navigation aids

VOR radial/distance  VOR name  Freq  Var
SACr279/12.2SACRAMENTO VORTAC115.2017E
MCCr229/19.7MC CLELLAN VOR/DME109.2017E
CCRr006/31.6CONCORD VOR/DME117.0017E
ILAr143/34.3WILLIAMS VORTAC114.4018E
SGDr036/34.8SCAGGS ISLAND VORTAC112.1017E
MYVr180/35.5MARYSVILLE VOR/DME110.8016E

Airport Services

Fuel available: 100LL
FUEL SELF-SERVICE AVBL 24 HRS.
Parking: tiedowns
Airframe service: MAJOR
Powerplant service: MAJOR
Bottled oxygen: NONE
Bulk oxygen: NONE

Runway Information

Runway 17/35

Dimensions: 3176 x 50 ft. / 968 x 15 m
Surface: asphalt, in good condition
Weight bearing capacity: 
Single wheel: OPNS LTD TO ACFT 12500 LBS OR LESS BY ARPT OWNER.
Runway edge lights: medium intensity
RY 17/35 NSTD MIRL 35 FT FM EDGE OF RY.
RUNWAY 17  RUNWAY 35
Latitude: 38-32.149167N38-31.625917N
Longitude: 121-47.184333W121-47.193000W
Elevation: 61.3 ft.68.0 ft.
Gradient: 0.2%0.2%
Traffic pattern: leftleft
Runway heading: 166 magnetic, 180 true346 magnetic, 000 true
Markings: basic, in good conditionbasic, in good condition
Visual slope indicator: 2-box SAVASI on left (4.25 degrees glide path)
OPERATE CONTINUOUSLY.
2-box VASI on left (3.75 degrees glide path)
Runway end identifier lights: nono
Touchdown point: yes, no lightsyes, no lights
Obstructions: 40 ft. tree, 1113 ft. from runway, 246 ft. left of centerline, 22:1 slope to clear70 ft. trees, 1257 ft. from runway, 15:1 slope to clear

Airport Ownership and Management from official FAA records

Ownership: Publicly-owned
Owner: UNIVERSITY OF CALIFORNIA
OFFICE OF ADMIN. & RESOURCE MGT., TB206
DAVIS, CA 95616
Phone 530-752-0100
Manager: CLIFFORD CONTRERAS
TRANSP. & PARKING SERVICES, 1 SHIELDS AVE
DAVIS, CA 95616-8724
Phone 530-752-5435

Airport Operational Statistics

Aircraft based on the field: 44
Single engine airplanes: 42
Multi engine airplanes: 2
    
Aircraft operations: avg 67/day *
49% local general aviation
41% transient general aviation
10% air taxi
<1% military
* for 12-month period ending 31 December 2015

Additional Remarks

65 FT TREES LCTD SOUTH SIDE OF CREEK 1,257 FT FM THLD RY 35.
TREES +40 FT, WEST SIDE OF RY NEAR RY 17 THLD.
NOISE ABATEMENT, NOISE SENSITIVE AREA NORTH OF AIRPORT.
AFTER HRS EMERGENCY: UC DAVIS POLICE 530-752-1230. AFTER HRS NON-EMERGENCY: UC DAVIS POLICE 530-752-1727.
CAUTION: REMOTE CONTROL ACFT WITHIN AREA DEFINED AS 0.5NM RAD OF 3835N/12142W (5NM NE EDU), SFC-1,200 FT AGL, SR-SS.

Instrument Procedures

NOTE: All procedures below are presented as PDF files. If you need a reader for these files, you should download the free Adobe Reader.

NOT FOR NAVIGATION. Please procure official charts for flight.
FAA instrument procedures published for use between 9 November 2017 at 0901Z and 7 December 2017 at 0900Z.

 
IAPs - Instrument Approach Procedures
RNAV (GPS) RWY 17 **CHANGED**   download (162KB)
NOTE: Special Take-Off Minimums/Departure Procedures apply   download (128KB)

Other nearby airports with instrument procedures:

KDWA - Yolo County Airport (4 nm NW)
O41 - Watts-Woodland Airport (9 nm NW)
KVCB - Nut Tree Airport (12 nm SW)
KSMF - Sacramento International Airport (13 nm NE)
KSAC - Sacramento Executive Airport (14 nm E)
KSUU - Travis Air Force Base (17 nm S)
KMCC - Mc Clellan Airfield (20 nm NE)
 
Loc | Ops | Rwys | IFR | FBO | Links
Com | Nav | Svcs | Stats | Notes

Sonoma Jet Center
 
Area around KEDU (University Airport)
 
Road maps at: MapQuest Bing Google
 
Aerial photo
WARNING: Photo may not be current or correct
Aerial photo of KEDU (University Airport)
Do you have a better or more recent aerial photo of University Airport that you would like to share? If so, please send us your photo.

 
Sectional chart

 
Airport distance calculator
Flying to University Airport? Find the distance to fly.

From to KEDU

Sunrise and sunset
Times for 19-Nov-2017
 Local
(UTC-8)
 Zulu
(UTC)
Morning civil twilight06:2614:26
Sunrise06:5514:55
Sunset16:5100:51
Evening civil twilight17:1901:19

Current date and time
Zulu (UTC)  19-Nov-2017 12:09:32
Local (UTC-8)  19-Nov-2017 04:09:32
 
METAR
KEDU 191155Z AUTO 00000KT 10SM CLR 04/02 A3018 RMK AO1
KVCB 
12nm SW 
191153Z AUTO 00000KT 10SM CLR 02/01 A3019 RMK AO2 SLP221 T00220011 10067 20017 58001
KSMF 
13nm NE 
191153Z 00000KT 10SM CLR 04/03 A3017 RMK AO2 SLP214 T00390033 10078 20022 58005
KSAC 
14nm E 
191153Z AUTO 00000KT 6SM BR CLR 04/04 A3017 RMK AO2 SLP217 T00440044 10072 20044 56005
KSUU 
17nm S 
191158Z 00000KT 10SM CLR 01/01 A3016 RMK AO2A SLP220 T00130007 10050 20008 53000
KMCC 
20nm NE 
191150Z AUTO 00000KT 8SM FEW027 SCT042 05/04 A3018 RMK AO2
TAF
KSMF 
13nm NE 
191120Z 1912/2012 VRB03KT P6SM SCT250 TEMPO 1914/1917 3SM BR
KSAC 
14nm E 
191120Z 1912/2012 00000KT 5SM BR SCT250 TEMPO 1915/1917 2SM BR FM191900 VRB03KT P6SM BKN250
KSUU 
17nm S 
191103Z 1911/2017 33009KT 9999 FEW250 QNH3009INS BECMG 1923/1924 24009KT 9999 BKN250 QNH3005INS BECMG 2008/2009 24009KT 9999 BKN030 QNH3005INS TX18/1922Z TN01/1912Z
NOTAMs
Click for the latest NOTAMs
NOTAMs are issued by the DoD/FAA and will open in a separate window not controlled by AirNav.

 

 
 

FBO, Fuel Providers, and Aircraft Ground Support

  
 Business Name 
 
 Contact 
 
 Services / Description 
 
Fuel Prices
 
Comments
  
University Airport Services 530-752-0100
no information available

If you are affiliated with University Airport Services and would like to show here your services, contact info, web link, logo, and more, click here
100LL
SS $4.12 
 Updated 05-Oct-2017
 
   write
SS=Self service
Update Fuel Prices
 

Would you like to see your business listed on this page?

 If your business provides an interesting product or service to pilots, flight crews, aircraft, or users of the University Airport, you should consider listing it here.  To start the listing process, click on the button below
 
Add a business
 

Other Pages about University Airport

taps.ucdavis.edu/airport
AWOS/ASOS display
 
Update a link
 
Copyright © AirNav, LLC. All rights reserved. Privacy Policy  Contact